createdAt,value
2019-05-17T00:01:46.900Z,8.80
2019-05-17T00:04:16.696Z,8.80
2019-05-17T00:06:47.646Z,8.80
2019-05-17T00:09:17.592Z,8.90
2019-05-17T00:11:47.305Z,9.00
2019-05-17T00:14:16.822Z,9.00
2019-05-17T00:16:46.952Z,9.00
2019-05-17T00:19:16.916Z,9.10
2019-05-17T00:21:47.456Z,9.10
2019-05-17T00:24:18.285Z,9.20
2019-05-17T00:26:47.588Z,9.20
2019-05-17T00:29:17.282Z,9.20
2019-05-17T00:31:46.604Z,9.20
2019-05-17T00:34:16.816Z,9.20
2019-05-17T00:36:46.914Z,9.20
2019-05-17T00:39:16.674Z,9.20
2019-05-17T00:41:47.004Z,9.20
2019-05-17T00:44:16.734Z,9.20
2019-05-17T00:46:46.778Z,9.20
2019-05-17T00:49:17.077Z,9.20
2019-05-17T00:51:47.402Z,9.20
2019-05-17T00:54:17.419Z,9.30
2019-05-17T00:56:46.659Z,9.20
2019-05-17T00:59:17.135Z,9.30
2019-05-17T01:01:46.954Z,9.30
2019-05-17T01:04:17.320Z,9.30
2019-05-17T01:06:47.017Z,9.30
2019-05-17T01:09:17.057Z,9.30
2019-05-17T01:11:47.441Z,9.30
2019-05-17T01:14:17.503Z,9.30
2019-05-17T01:16:47.504Z,9.30
2019-05-17T01:19:16.615Z,9.30
2019-05-17T01:21:47.485Z,9.30
2019-05-17T01:24:17.342Z,9.30
2019-05-17T01:26:46.987Z,9.30
2019-05-17T01:29:17.477Z,9.30
2019-05-17T01:31:47.073Z,9.30
2019-05-17T01:34:16.628Z,9.30
2019-05-17T01:36:46.560Z,9.30
2019-05-17T01:39:21.083Z,9.30
2019-05-17T01:41:46.925Z,9.20
2019-05-17T01:44:16.699Z,9.20
2019-05-17T01:46:46.448Z,9.20
2019-05-17T01:49:16.479Z,9.20
2019-05-17T01:51:46.557Z,9.10
2019-05-17T01:54:17.567Z,9.10
2019-05-17T01:56:46.489Z,9.10
2019-05-17T01:59:17.263Z,9.10
2019-05-17T02:01:48.349Z,9.10
2019-05-17T02:04:17.621Z,9.00
2019-05-17T02:06:46.910Z,9.00
2019-05-17T02:09:32.283Z,9.00
2019-05-17T02:11:46.887Z,9.00
2019-05-17T02:14:16.582Z,9.00
2019-05-17T02:16:46.730Z,9.00
2019-05-17T02:19:17.462Z,9.10
2019-05-17T02:21:47.930Z,9.00
2019-05-17T02:24:17.300Z,9.10
2019-05-17T02:26:46.647Z,9.10
2019-05-17T02:29:15.840Z,9.00
2019-05-17T02:31:45.244Z,9.00
2019-05-17T02:34:14.503Z,9.10
2019-05-17T02:36:43.576Z,9.00
2019-05-17T02:39:13.372Z,9.00
2019-05-17T02:41:43.207Z,9.00
2019-05-17T02:44:13.015Z,9.00
2019-05-17T02:46:43.387Z,9.10
2019-05-17T02:49:13.708Z,9.10
2019-05-17T02:51:43.360Z,9.00
2019-05-17T02:54:13.421Z,9.10
2019-05-17T02:56:43.549Z,9.10
2019-05-17T02:59:13.629Z,9.10
2019-05-17T03:01:44.322Z,9.10
2019-05-17T03:04:13.667Z,9.10
2019-05-17T03:06:43.844Z,9.10
2019-05-17T03:09:13.432Z,9.10
2019-05-17T03:11:43.067Z,9.10
2019-05-17T03:14:12.996Z,9.10
2019-05-17T03:16:43.105Z,9.10
2019-05-17T03:19:13.223Z,9.10
2019-05-17T03:21:43.056Z,9.20
2019-05-17T03:24:13.669Z,9.10
2019-05-17T03:26:43.323Z,9.20
2019-05-17T03:29:13.709Z,9.20
2019-05-17T03:31:51.064Z,9.20
2019-05-17T03:34:16.656Z,9.20
2019-05-17T03:36:46.903Z,9.20
2019-05-17T03:39:16.548Z,9.20
2019-05-17T03:41:45.739Z,9.30
2019-05-17T03:44:14.898Z,9.30
2019-05-17T03:46:44.078Z,9.30
2019-05-17T03:49:13.307Z,9.30
2019-05-17T03:51:42.751Z,9.30
2019-05-17T03:54:13.773Z,9.40
2019-05-17T03:56:42.969Z,9.40
2019-05-17T03:59:12.859Z,9.40
2019-05-17T04:01:43.554Z,9.40
2019-05-17T04:04:13.569Z,9.50
2019-05-17T04:06:43.686Z,9.50
2019-05-17T04:09:14.095Z,9.60
2019-05-17T04:11:43.422Z,9.60
2019-05-17T04:14:13.866Z,9.60
2019-05-17T04:16:43.221Z,9.70
2019-05-17T04:19:14.005Z,9.70
2019-05-17T04:21:43.089Z,9.80
2019-05-17T04:24:12.894Z,9.90
2019-05-17T04:26:44.023Z,9.90
2019-05-17T04:29:13.650Z,9.90
2019-05-17T04:31:43.576Z,10.00
2019-05-17T04:34:13.653Z,10.10
2019-05-17T04:36:43.311Z,10.20
2019-05-17T04:39:13.535Z,10.30
2019-05-17T04:41:49.332Z,10.50
2019-05-17T04:44:13.762Z,10.70
2019-05-17T04:46:43.324Z,10.90
2019-05-17T04:49:13.798Z,11.10
2019-05-17T04:51:44.149Z,11.20
2019-05-17T04:54:13.886Z,11.30
2019-05-17T04:56:43.211Z,11.40
2019-05-17T04:59:13.863Z,11.60
2019-05-17T05:01:43.733Z,11.70
2019-05-17T05:04:15.382Z,12.00
2019-05-17T05:06:44.638Z,12.20
2019-05-17T05:09:13.715Z,12.40
2019-05-17T05:11:53.368Z,12.40
2019-05-17T05:14:13.731Z,12.50
2019-05-17T05:16:42.877Z,12.90
2019-05-17T05:19:13.023Z,13.40
2019-05-17T05:21:42.668Z,13.60
2019-05-17T05:24:11.870Z,13.90
2019-05-17T05:26:42.523Z,13.80
2019-05-17T05:29:12.766Z,13.60
2019-05-17T05:31:42.805Z,13.50
2019-05-17T05:34:12.415Z,13.50
2019-05-17T05:36:41.976Z,13.90
2019-05-17T05:39:11.641Z,14.20
2019-05-17T05:41:42.653Z,14.40
2019-05-17T05:44:12.315Z,14.60
2019-05-17T05:46:42.208Z,14.80
2019-05-17T05:49:12.431Z,14.90
2019-05-17T05:51:42.451Z,15.10
2019-05-17T05:54:12.270Z,15.60
2019-05-17T05:56:42.247Z,15.60
2019-05-17T05:59:12.313Z,16.20
2019-05-17T06:01:42.116Z,17.90
2019-05-17T06:04:11.756Z,19.80
2019-05-17T06:06:41.666Z,21.30
2019-05-17T06:09:12.026Z,22.40
2019-05-17T06:11:41.804Z,22.60
2019-05-17T06:14:12.202Z,22.20
2019-05-17T06:16:42.477Z,22.40
2019-05-17T06:19:11.779Z,22.40
2019-05-17T06:21:42.751Z,22.00
2019-05-17T06:24:11.994Z,22.00
2019-05-17T06:26:42.184Z,21.60
2019-05-17T06:29:11.891Z,21.20
2019-05-17T06:31:43.186Z,20.80
2019-05-17T06:34:11.961Z,20.60
2019-05-17T06:36:42.377Z,20.40
2019-05-17T06:39:11.791Z,20.30
2019-05-17T06:41:41.975Z,20.10
2019-05-17T06:44:12.179Z,20.00
2019-05-17T06:46:41.874Z,19.80
2019-05-17T06:49:11.794Z,19.70
2019-05-17T06:51:42.562Z,19.40
2019-05-17T06:54:12.092Z,19.30
2019-05-17T06:56:41.787Z,19.10
2019-05-17T06:59:11.086Z,19.10
2019-05-17T07:01:41.018Z,19.10
2019-05-17T07:04:10.506Z,19.10
2019-05-17T07:06:40.506Z,19.00
2019-05-17T07:09:10.061Z,18.90
2019-05-17T07:11:39.917Z,18.80
2019-05-17T07:14:09.491Z,18.70
2019-05-17T07:16:39.715Z,18.70
2019-05-17T07:19:10.314Z,18.70
2019-05-17T07:21:40.356Z,18.70
2019-05-17T07:24:10.124Z,18.80
2019-05-17T07:26:39.425Z,18.80
2019-05-17T07:29:10.090Z,19.00
2019-05-17T07:31:40.437Z,19.20
2019-05-17T07:34:09.732Z,19.30
2019-05-17T07:36:39.715Z,19.50
2019-05-17T07:39:10.845Z,19.60
2019-05-17T07:41:40.176Z,19.70
2019-05-17T07:44:09.918Z,19.80
2019-05-17T07:46:40.151Z,20.00
2019-05-17T07:49:10.812Z,20.10
2019-05-17T07:51:40.171Z,20.20
2019-05-17T07:54:10.479Z,20.40
2019-05-17T07:56:40.180Z,20.60
2019-05-17T07:59:09.594Z,20.40
2019-05-17T08:01:41.056Z,20.40
2019-05-17T08:04:09.978Z,20.10
2019-05-17T08:06:40.304Z,19.60
2019-05-17T08:09:13.759Z,19.20
2019-05-17T08:11:40.338Z,18.70
2019-05-17T08:14:10.527Z,18.30
2019-05-17T08:16:39.758Z,18.00
2019-05-17T08:19:09.756Z,17.80
2019-05-17T08:21:39.777Z,17.70
2019-05-17T08:24:10.502Z,17.70
2019-05-17T08:26:40.405Z,17.80
2019-05-17T08:29:10.033Z,18.00
2019-05-17T08:31:40.474Z,18.20
2019-05-17T08:34:10.359Z,18.30
2019-05-17T08:36:40.537Z,18.00
2019-05-17T08:39:10.365Z,17.80
2019-05-17T08:41:40.464Z,17.70
2019-05-17T08:44:10.203Z,17.70
2019-05-17T08:46:39.577Z,17.70
2019-05-17T08:49:09.746Z,17.60
2019-05-17T08:51:39.763Z,17.70
2019-05-17T08:54:10.315Z,17.90
2019-05-17T08:56:40.369Z,18.00
2019-05-17T08:59:09.740Z,18.20
2019-05-17T09:01:41.634Z,18.20
2019-05-17T09:04:09.622Z,18.50
2019-05-17T09:06:39.716Z,18.70
2019-05-17T09:09:10.076Z,19.00
2019-05-17T09:11:39.610Z,19.10
2019-05-17T09:14:10.452Z,19.50
2019-05-17T09:16:40.218Z,19.70
2019-05-17T09:19:10.088Z,19.70
2019-05-17T09:21:39.819Z,19.80
2019-05-17T09:24:10.423Z,20.00
2019-05-17T09:26:40.037Z,20.10
2019-05-17T09:29:10.740Z,20.20
2019-05-17T09:31:40.430Z,20.30
2019-05-17T09:34:09.729Z,20.40
2019-05-17T09:36:40.877Z,20.60
2019-05-17T09:39:09.935Z,20.80
2019-05-17T09:41:39.744Z,21.00
2019-05-17T09:44:15.119Z,21.30
2019-05-17T09:46:39.879Z,21.60
2019-05-17T09:49:10.478Z,21.90
2019-05-17T09:51:39.832Z,22.10
2019-05-17T09:54:10.231Z,22.30
2019-05-17T09:56:39.539Z,22.30
2019-05-17T09:59:09.952Z,22.30
2019-05-17T10:01:39.636Z,22.60
2019-05-17T10:04:12.989Z,22.60
2019-05-17T10:06:40.151Z,22.40
2019-05-17T10:09:09.672Z,22.10
2019-05-17T10:11:39.970Z,21.80
2019-05-17T10:14:11.425Z,21.70
2019-05-17T10:16:39.995Z,21.60
2019-05-17T10:19:09.565Z,21.30
2019-05-17T10:21:39.904Z,20.90
2019-05-17T10:24:09.564Z,20.80
2019-05-17T10:26:38.792Z,20.60
2019-05-17T10:29:09.881Z,20.50
2019-05-17T10:31:39.826Z,20.50
2019-05-17T10:34:09.755Z,20.30
2019-05-17T10:36:40.105Z,20.10
2019-05-17T10:39:09.992Z,20.00
2019-05-17T10:41:40.629Z,19.90
2019-05-17T10:44:09.952Z,19.90
2019-05-17T10:46:40.702Z,20.10
2019-05-17T10:49:10.810Z,20.40
2019-05-17T10:51:40.306Z,20.80
2019-05-17T10:54:09.749Z,21.30
2019-05-17T10:56:39.224Z,21.60
2019-05-17T10:59:09.904Z,21.90
2019-05-17T11:01:39.160Z,22.00
2019-05-17T11:04:10.271Z,22.20
2019-05-17T11:06:39.416Z,22.40
2019-05-17T11:09:10.230Z,22.70
2019-05-17T11:11:39.551Z,22.90
2019-05-17T11:14:08.781Z,23.00
2019-05-17T11:16:38.231Z,23.00
2019-05-17T11:19:08.856Z,23.00
2019-05-17T11:21:38.022Z,22.90
2019-05-17T11:24:07.307Z,22.90
2019-05-17T11:26:36.471Z,22.70
2019-05-17T11:29:05.682Z,22.70
2019-05-17T11:31:34.936Z,22.60
2019-05-17T11:34:04.096Z,22.50
2019-05-17T11:36:33.481Z,22.50
2019-05-17T11:39:02.642Z,22.50
2019-05-17T11:41:31.785Z,22.80
2019-05-17T11:44:00.898Z,23.00
2019-05-17T11:46:36.085Z,23.30
2019-05-17T11:49:00.777Z,23.40
2019-05-17T11:51:30.153Z,23.60
2019-05-17T11:53:59.247Z,23.80
2019-05-17T11:56:28.343Z,24.00
2019-05-17T11:58:57.385Z,24.20
2019-05-17T12:01:26.598Z,24.40
2019-05-17T12:03:55.772Z,24.40
2019-05-17T12:06:24.898Z,24.40
2019-05-17T12:08:53.912Z,24.50
2019-05-17T12:11:23.037Z,24.40
2019-05-17T12:13:52.152Z,24.30
2019-05-17T12:16:21.343Z,24.20
2019-05-17T12:18:50.443Z,24.00
2019-05-17T12:21:19.679Z,23.70
2019-05-17T12:23:48.775Z,23.40
2019-05-17T12:26:17.847Z,23.30
2019-05-17T12:28:47.091Z,23.30
2019-05-17T12:31:16.287Z,23.30
2019-05-17T12:33:45.643Z,23.30
2019-05-17T12:36:14.817Z,23.30
2019-05-17T12:38:44.296Z,23.30
2019-05-17T12:41:13.442Z,23.40
2019-05-17T12:43:42.576Z,23.40
2019-05-17T12:46:11.688Z,23.50
2019-05-17T12:48:41.222Z,23.40
2019-05-17T12:51:10.344Z,23.40
2019-05-17T12:53:39.556Z,23.40
2019-05-17T12:56:08.766Z,23.40
2019-05-17T12:58:37.786Z,23.50
2019-05-17T13:01:07.032Z,23.60
2019-05-17T13:03:36.149Z,23.50
2019-05-17T13:06:05.303Z,23.40
2019-05-17T13:08:34.374Z,23.30
2019-05-17T13:11:03.801Z,23.30
2019-05-17T13:13:32.889Z,23.40
2019-05-17T13:16:16.889Z,23.50
2019-05-17T13:18:32.684Z,23.50
2019-05-17T13:21:01.782Z,23.30
2019-05-17T13:23:30.957Z,23.20
2019-05-17T13:26:00.166Z,23.10
2019-05-17T13:28:29.171Z,23.20
2019-05-17T13:30:58.292Z,23.20
2019-05-17T13:33:29.265Z,23.00
2019-05-17T13:35:58.608Z,22.90
2019-05-17T13:38:27.732Z,23.10
2019-05-17T13:40:56.824Z,23.30
2019-05-17T13:43:25.868Z,23.40
2019-05-17T13:45:54.966Z,23.50
2019-05-17T13:48:24.417Z,23.50
2019-05-17T13:50:53.604Z,23.70
2019-05-17T13:53:23.028Z,23.80
2019-05-17T13:55:52.173Z,24.00
2019-05-17T13:58:21.379Z,24.10
2019-05-17T14:00:50.476Z,24.20
2019-05-17T14:03:19.695Z,24.20
2019-05-17T14:05:48.727Z,24.10
2019-05-17T14:08:17.847Z,24.00
2019-05-17T14:10:47.244Z,23.80
2019-05-17T14:13:16.331Z,23.70
2019-05-17T14:15:45.584Z,23.80
2019-05-17T14:18:14.737Z,23.90
2019-05-17T14:20:43.953Z,23.90
2019-05-17T14:23:13.359Z,23.90
2019-05-17T14:25:42.503Z,23.90
2019-05-17T14:28:11.698Z,23.80
2019-05-17T14:30:40.754Z,23.50
2019-05-17T14:33:09.875Z,23.40
2019-05-17T14:35:39.014Z,23.10
2019-05-17T14:38:08.156Z,23.00
2019-05-17T14:41:05.055Z,22.90
2019-05-17T14:43:08.088Z,23.00
2019-05-17T14:45:37.231Z,23.00
2019-05-17T14:48:06.465Z,23.00
2019-05-17T14:50:35.476Z,22.90
2019-05-17T14:53:04.946Z,22.80
2019-05-17T14:55:34.356Z,22.70
2019-05-17T14:58:03.668Z,22.60
2019-05-17T15:00:32.841Z,22.60
2019-05-17T15:03:01.956Z,22.60
2019-05-17T15:05:31.393Z,22.60
2019-05-17T15:08:00.823Z,22.70
2019-05-17T15:10:30.011Z,23.00
2019-05-17T15:13:01.565Z,23.00
2019-05-17T15:15:29.732Z,23.00
2019-05-17T15:17:58.799Z,23.00
2019-05-17T15:20:28.008Z,22.80
2019-05-17T15:22:57.396Z,22.40
2019-05-17T15:25:26.428Z,22.20
2019-05-17T15:27:55.536Z,21.90
2019-05-17T15:30:24.926Z,21.50
2019-05-17T15:32:53.911Z,21.30
2019-05-17T15:35:23.112Z,21.10
2019-05-17T15:37:52.219Z,20.90
2019-05-17T15:40:21.436Z,20.80
2019-05-17T15:42:50.543Z,20.60
2019-05-17T15:45:20.280Z,20.60
2019-05-17T15:47:49.375Z,20.50
2019-05-17T15:50:18.693Z,20.50
2019-05-17T15:52:48.035Z,20.30
2019-05-17T15:55:17.948Z,20.20
2019-05-17T15:57:47.049Z,20.30
2019-05-17T16:00:16.830Z,20.30
2019-05-17T16:02:45.899Z,20.30
2019-05-17T16:05:16.756Z,20.30
2019-05-17T16:07:45.843Z,20.30
2019-05-17T16:10:16.151Z,20.20
2019-05-17T16:13:01.026Z,20.20
2019-05-17T16:15:16.008Z,20.20
2019-05-17T16:17:45.092Z,20.10
2019-05-17T16:20:16.740Z,20.10
2019-05-17T16:22:45.029Z,20.10
2019-05-17T16:25:14.344Z,20.00
2019-05-17T16:27:43.419Z,20.00
2019-05-17T16:30:12.730Z,19.90
2019-05-17T16:32:41.830Z,19.90
2019-05-17T16:35:11.227Z,19.90
2019-05-17T16:37:40.347Z,19.80
2019-05-17T16:40:09.511Z,19.70
2019-05-17T16:42:38.515Z,19.70
2019-05-17T16:45:09.201Z,19.70
2019-05-17T16:47:38.371Z,19.60
2019-05-17T16:50:07.876Z,19.50
2019-05-17T16:52:37.063Z,19.50
2019-05-17T16:55:06.479Z,19.40
2019-05-17T16:57:35.946Z,19.30
2019-05-17T17:00:05.450Z,19.30
2019-05-17T17:02:34.633Z,19.20
2019-05-17T17:05:03.911Z,19.20
2019-05-17T17:07:33.036Z,19.10
2019-05-17T17:10:02.149Z,19.00
2019-05-17T17:12:31.155Z,19.00
2019-05-17T17:15:00.212Z,18.90
2019-05-17T17:17:29.207Z,18.90
2019-05-17T17:19:58.259Z,18.80
2019-05-17T17:22:27.270Z,18.80
2019-05-17T17:24:56.644Z,18.70
2019-05-17T17:27:25.852Z,18.70
2019-05-17T17:29:54.956Z,18.60
2019-05-17T17:32:24.053Z,18.50
2019-05-17T17:34:53.200Z,18.50
2019-05-17T17:37:22.219Z,18.40
2019-05-17T17:39:53.332Z,18.40
2019-05-17T17:42:22.172Z,18.30
2019-05-17T17:44:51.595Z,18.10
2019-05-17T17:47:20.676Z,18.10
2019-05-17T17:49:49.858Z,18.00
2019-05-17T17:52:19.014Z,17.90
2019-05-17T17:54:48.111Z,17.80
2019-05-17T17:57:17.229Z,17.80
2019-05-17T17:59:46.567Z,17.70
2019-05-17T18:02:15.755Z,17.60
2019-05-17T18:04:44.834Z,17.50
2019-05-17T18:07:13.862Z,17.40
2019-05-17T18:09:42.872Z,17.30
2019-05-17T18:12:11.959Z,17.10
2019-05-17T18:14:41.379Z,17.00
2019-05-17T18:17:10.672Z,17.00
2019-05-17T18:19:39.744Z,16.90
2019-05-17T18:22:09.109Z,16.80
2019-05-17T18:24:38.286Z,16.70
2019-05-17T18:27:07.476Z,16.60
2019-05-17T18:29:36.499Z,16.50
2019-05-17T18:32:06.166Z,16.40
2019-05-17T18:34:35.927Z,16.30
2019-05-17T18:37:05.224Z,16.20
2019-05-17T18:39:34.560Z,16.10
2019-05-17T18:42:04.300Z,15.90
2019-05-17T18:44:33.543Z,15.80
2019-05-17T18:47:02.924Z,15.60
2019-05-17T18:49:32.168Z,15.50
2019-05-17T18:52:01.406Z,15.30
2019-05-17T18:54:30.563Z,15.10
2019-05-17T18:56:59.552Z,15.00
2019-05-17T18:59:28.743Z,14.80
2019-05-17T19:01:57.878Z,14.70
2019-05-17T19:04:27.336Z,14.60
2019-05-17T19:06:57.276Z,14.50
2019-05-17T19:09:26.469Z,14.30
2019-05-17T19:11:55.675Z,14.20
2019-05-17T19:14:24.703Z,14.10
2019-05-17T19:16:53.856Z,14.00
2019-05-17T19:19:23.012Z,13.90
2019-05-17T19:21:52.131Z,13.80
2019-05-17T19:24:21.235Z,13.70
2019-05-17T19:26:50.555Z,13.60
2019-05-17T19:29:19.731Z,13.50
2019-05-17T19:31:48.874Z,13.30
2019-05-17T19:34:17.891Z,13.20
2019-05-17T19:36:47.839Z,13.10
2019-05-17T19:39:17.599Z,13.00
2019-05-17T19:41:47.827Z,12.90
2019-05-17T19:44:17.662Z,12.80
2019-05-17T19:46:47.269Z,12.70
2019-05-17T19:49:17.514Z,12.70
2019-05-17T19:51:47.716Z,12.60
2019-05-17T19:54:20.134Z,12.50
2019-05-17T19:56:49.722Z,12.40
2019-05-17T19:59:18.736Z,12.30
2019-05-17T20:01:47.879Z,12.20
2019-05-17T20:04:17.026Z,12.10
2019-05-17T20:06:46.019Z,12.00
2019-05-17T20:09:15.153Z,12.00
2019-05-17T20:11:44.304Z,11.90
2019-05-17T20:14:13.402Z,11.80
2019-05-17T20:16:42.519Z,11.70
2019-05-17T20:19:11.624Z,11.70
2019-05-17T20:21:40.635Z,11.60
2019-05-17T20:24:10.124Z,11.50
2019-05-17T20:26:39.156Z,11.40
2019-05-17T20:29:10.957Z,11.40
2019-05-17T20:31:38.983Z,11.30
2019-05-17T20:34:08.137Z,11.30
2019-05-17T20:36:37.359Z,11.20
2019-05-17T20:39:07.498Z,11.10
2019-05-17T20:41:36.623Z,11.10
2019-05-17T20:44:05.770Z,11.00
2019-05-17T20:46:34.867Z,11.00
2019-05-17T20:49:03.952Z,10.90
2019-05-17T20:51:33.066Z,10.90
2019-05-17T20:54:02.108Z,10.80
2019-05-17T20:56:33.247Z,10.80
2019-05-17T20:59:02.160Z,10.80
2019-05-17T21:01:31.256Z,10.70
2019-05-17T21:04:00.409Z,10.70
2019-05-17T21:06:29.799Z,10.60
2019-05-17T21:08:59.213Z,10.60
2019-05-17T21:11:28.258Z,10.60
2019-05-17T21:13:57.618Z,10.60
2019-05-17T21:16:26.643Z,10.60
2019-05-17T21:18:55.669Z,10.60
2019-05-17T21:21:24.700Z,10.50
2019-05-17T21:23:53.832Z,10.50
2019-05-17T21:26:23.171Z,10.40
2019-05-17T21:28:52.320Z,10.40
2019-05-17T21:31:21.491Z,10.40
2019-05-17T21:33:50.712Z,10.30
2019-05-17T21:36:19.874Z,10.20
2019-05-17T21:38:49.155Z,10.20
2019-05-17T21:41:18.182Z,10.20
2019-05-17T21:43:47.215Z,10.20
2019-05-17T21:46:16.525Z,10.10
2019-05-17T21:48:45.624Z,10.10
2019-05-17T21:51:14.756Z,10.00
2019-05-17T21:53:43.834Z,9.90
2019-05-17T21:56:13.099Z,9.90
2019-05-17T21:58:42.275Z,9.90
2019-05-17T22:01:16.007Z,9.90
2019-05-17T22:03:45.394Z,9.80
2019-05-17T22:06:14.520Z,9.70
2019-05-17T22:08:43.731Z,9.70
2019-05-17T22:11:12.818Z,9.70
2019-05-17T22:13:41.938Z,9.60
2019-05-17T22:16:19.196Z,9.50
2019-05-17T22:18:42.315Z,9.50
2019-05-17T22:21:11.583Z,9.40
2019-05-17T22:23:40.786Z,9.40
2019-05-17T22:26:09.860Z,9.30
2019-05-17T22:28:39.575Z,9.30
2019-05-17T22:31:08.733Z,9.30
2019-05-17T22:33:38.008Z,9.20
2019-05-17T22:36:07.170Z,9.20
2019-05-17T22:38:36.290Z,9.20
2019-05-17T22:41:05.507Z,9.10
2019-05-17T22:43:34.648Z,9.10
2019-05-17T22:46:03.857Z,9.10
2019-05-17T22:48:33.023Z,9.00
2019-05-17T22:51:02.379Z,9.00
2019-05-17T22:53:31.451Z,8.90
2019-05-17T22:56:00.577Z,8.90
2019-05-17T22:58:29.660Z,8.90
2019-05-17T23:00:58.712Z,8.90
2019-05-17T23:03:27.858Z,8.90
2019-05-17T23:05:56.944Z,8.90
2019-05-17T23:08:26.229Z,8.80
2019-05-17T23:10:55.376Z,8.80
2019-05-17T23:13:24.374Z,8.70
2019-05-17T23:16:04.126Z,8.70
2019-05-17T23:18:33.952Z,8.70
2019-05-17T23:21:03.184Z,8.60
2019-05-17T23:23:32.326Z,8.60
2019-05-17T23:26:01.824Z,8.60
2019-05-17T23:28:30.849Z,8.50
2019-05-17T23:30:59.908Z,8.50
2019-05-17T23:33:29.086Z,8.50
2019-05-17T23:35:58.072Z,8.40
2019-05-17T23:38:27.159Z,8.40
2019-05-17T23:40:56.463Z,8.40
2019-05-17T23:43:25.526Z,8.30
2019-05-17T23:45:54.547Z,8.40
2019-05-17T23:48:23.621Z,8.30
2019-05-17T23:50:52.636Z,8.30
2019-05-17T23:53:21.690Z,8.30
2019-05-17T23:55:50.792Z,8.20
2019-05-17T23:58:19.848Z,8.20
